Par, United Kingdom
Current Conditions -  °F | °C
As of 9:50 AM on Tuesday 21 Oct 2014 (Local Time) from EGHQ Reporting Station
Rain Showers Rain Showers  
Wind Chill: 52°   Ceiling: Unl
Heat Index: 52°   Visibility: 6mi
Dew Point: 41°   Wind: 35mph
Humidity: 67%   Direction: 310°NW
Pressure: 29.88"   Gusts: 46mph
Location:  50.35°N, 4.71°W
Report Text: EGHQ 210850Z 31030G40KT 9999 VCSH SCT035 11/05 Q1012
Loading
Personal Weather Stations






























Interactive Weather Map
Tropical Storm Tracking
New forecast layout! Learn more

10-Day Weather Forecast

Advertisements
Track Severe Weather on mobile